sensor_id;sensor_type;location;lat;lon;timestamp;P1;durP1;ratioP1;P2;durP2;ratioP2
70008;SDS011;59542;37.950;-122.338;2023-10-08T00:00:43;2.45;;;1.48;;
70008;SDS011;59542;37.950;-122.338;2023-10-08T00:03:19;2.20;;;1.40;;
70008;SDS011;59542;37.950;-122.338;2023-10-08T00:05:46;4.53;;;1.73;;
70008;SDS011;59542;37.950;-122.338;2023-10-08T00:08:14;4.97;;;1.83;;
70008;SDS011;59542;37.950;-122.338;2023-10-08T00:10:42;5.18;;;1.80;;
70008;SDS011;59542;37.950;-122.338;2023-10-08T00:13:10;5.13;;;1.70;;
70008;SDS011;59542;37.950;-122.338;2023-10-08T00:15:41;3.97;;;1.60;;
70008;SDS011;59542;37.950;-122.338;2023-10-08T00:18:24;3.65;;;1.60;;
70008;SDS011;59542;37.950;-122.338;2023-10-08T00:20:50;5.15;;;1.95;;
70008;SDS011;59542;37.950;-122.338;2023-10-08T00:23:22;5.22;;;2.17;;
70008;SDS011;59542;37.950;-122.338;2023-10-08T00:25:54;3.55;;;2.00;;
70008;SDS011;59542;37.950;-122.338;2023-10-08T00:28:23;7.80;;;2.20;;
70008;SDS011;59542;37.950;-122.338;2023-10-08T00:30:50;5.30;;;2.22;;
70008;SDS011;59542;37.950;-122.338;2023-10-08T00:33:20;3.80;;;2.22;;
70008;SDS011;59542;37.950;-122.338;2023-10-08T00:35:46;4.47;;;1.90;;
70008;SDS011;59542;37.950;-122.338;2023-10-08T00:38:13;4.97;;;1.92;;
70008;SDS011;59542;37.950;-122.338;2023-10-08T00:40:46;3.78;;;1.92;;
70008;SDS011;59542;37.950;-122.338;2023-10-08T00:43:34;3.60;;;1.83;;
70008;SDS011;59542;37.950;-122.338;2023-10-08T00:46:01;3.28;;;1.63;;
70008;SDS011;59542;37.950;-122.338;2023-10-08T00:48:30;7.63;;;2.55;;
70008;SDS011;59542;37.950;-122.338;2023-10-08T00:51:04;4.05;;;1.95;;
70008;SDS011;59542;37.950;-122.338;2023-10-08T00:53:53;3.47;;;1.63;;
70008;SDS011;59542;37.950;-122.338;2023-10-08T00:56:27;5.15;;;2.15;;
70008;SDS011;59542;37.950;-122.338;2023-10-08T00:59:13;4.35;;;1.83;;
70008;SDS011;59542;37.950;-122.338;2023-10-08T01:01:42;5.18;;;1.90;;
70008;SDS011;59542;37.950;-122.338;2023-10-08T01:04:17;5.05;;;2.05;;
70008;SDS011;59542;37.950;-122.338;2023-10-08T01:06:48;5.50;;;1.83;;
70008;SDS011;59542;37.950;-122.338;2023-10-08T01:09:21;5.35;;;1.95;;
70008;SDS011;59542;37.950;-122.338;2023-10-08T01:12:12;4.63;;;2.00;;
70008;SDS011;59542;37.950;-122.338;2023-10-08T01:15:09;5.57;;;2.13;;
70008;SDS011;59542;37.950;-122.338;2023-10-08T01:17:49;6.90;;;2.20;;
70008;SDS011;59542;37.950;-122.338;2023-10-08T01:20:29;4.28;;;2.42;;
70008;SDS011;59542;37.950;-122.338;2023-10-08T01:23:15;5.35;;;1.90;;
70008;SDS011;59542;37.950;-122.338;2023-10-08T01:25:52;3.42;;;2.40;;
70008;SDS011;59542;37.950;-122.338;2023-10-08T01:28:24;4.93;;;2.40;;
70008;SDS011;59542;37.950;-122.338;2023-10-08T01:30:52;3.60;;;1.88;;
70008;SDS011;59542;37.950;-122.338;2023-10-08T01:33:20;6.72;;;2.10;;
70008;SDS011;59542;37.950;-122.338;2023-10-08T01:35:53;2.95;;;1.70;;
70008;SDS011;59542;37.950;-122.338;2023-10-08T01:38:20;3.90;;;2.17;;
70008;SDS011;59542;37.950;-122.338;2023-10-08T01:40:49;3.50;;;2.10;;
70008;SDS011;59542;37.950;-122.338;2023-10-08T01:43:16;4.75;;;2.63;;
70008;SDS011;59542;37.950;-122.338;2023-10-08T01:45:43;4.63;;;2.15;;
70008;SDS011;59542;37.950;-122.338;2023-10-08T01:48:15;3.47;;;1.80;;
70008;SDS011;59542;37.950;-122.338;2023-10-08T01:50:46;5.57;;;2.55;;
70008;SDS011;59542;37.950;-122.338;2023-10-08T01:53:13;3.22;;;1.95;;
70008;SDS011;59542;37.950;-122.338;2023-10-08T01:55:41;4.93;;;2.67;;
70008;SDS011;59542;37.950;-122.338;2023-10-08T01:58:14;5.25;;;2.40;;
70008;SDS011;59542;37.950;-122.338;2023-10-08T02:00:43;6.45;;;2.70;;
70008;SDS011;59542;37.950;-122.338;2023-10-08T02:03:13;5.55;;;2.30;;
70008;SDS011;59542;37.950;-122.338;2023-10-08T02:05:43;5.65;;;2.58;;
70008;SDS011;59542;37.950;-122.338;2023-10-08T02:08:11;7.15;;;2.72;;
70008;SDS011;59542;37.950;-122.338;2023-10-08T02:10:41;6.00;;;2.58;;
70008;SDS011;59542;37.950;-122.338;2023-10-08T02:13:12;5.20;;;2.40;;
70008;SDS011;59542;37.950;-122.338;2023-10-08T02:15:48;4.22;;;2.35;;
70008;SDS011;59542;37.950;-122.338;2023-10-08T02:18:19;9.70;;;2.90;;
70008;SDS011;59542;37.950;-122.338;2023-10-08T02:20:48;6.45;;;2.95;;
70008;SDS011;59542;37.950;-122.338;2023-10-08T02:23:14;4.40;;;2.67;;
70008;SDS011;59542;37.950;-122.338;2023-10-08T02:25:41;4.95;;;2.67;;
70008;SDS011;59542;37.950;-122.338;2023-10-08T02:28:07;5.88;;;2.70;;
70008;SDS011;59542;37.950;-122.338;2023-10-08T02:30:34;4.45;;;2.60;;
70008;SDS011;59542;37.950;-122.338;2023-10-08T02:33:02;3.85;;;2.22;;
70008;SDS011;59542;37.950;-122.338;2023-10-08T02:35:28;5.47;;;3.00;;
70008;SDS011;59542;37.950;-122.338;2023-10-08T02:37:54;5.90;;;2.47;;
70008;SDS011;59542;37.950;-122.338;2023-10-08T02:40:20;6.43;;;3.05;;
70008;SDS011;59542;37.950;-122.338;2023-10-08T02:42:53;5.55;;;3.03;;
70008;SDS011;59542;37.950;-122.338;2023-10-08T02:45:26;5.10;;;2.88;;
70008;SDS011;59542;37.950;-122.338;2023-10-08T02:47:54;7.72;;;3.47;;
70008;SDS011;59542;37.950;-122.338;2023-10-08T02:50:21;7.70;;;3.28;;
70008;SDS011;59542;37.950;-122.338;2023-10-08T02:52:48;6.00;;;3.33;;
70008;SDS011;59542;37.950;-122.338;2023-10-08T02:55:16;10.90;;;3.30;;
70008;SDS011;59542;37.950;-122.338;2023-10-08T02:58:15;9.05;;;3.95;;
70008;SDS011;59542;37.950;-122.338;2023-10-08T03:00:47;7.85;;;3.47;;
70008;SDS011;59542;37.950;-122.338;2023-10-08T03:03:17;6.43;;;3.65;;
70008;SDS011;59542;37.950;-122.338;2023-10-08T03:05:53;5.95;;;3.67;;
70008;SDS011;59542;37.950;-122.338;2023-10-08T03:08:22;5.90;;;2.78;;
70008;SDS011;59542;37.950;-122.338;2023-10-08T03:10:49;5.70;;;2.83;;
70008;SDS011;59542;37.950;-122.338;2023-10-08T03:13:28;7.57;;;3.55;;
70008;SDS011;59542;37.950;-122.338;2023-10-08T03:15:54;6.65;;;3.47;;
70008;SDS011;59542;37.950;-122.338;2023-10-08T03:18:30;4.60;;;2.63;;
70008;SDS011;59542;37.950;-122.338;2023-10-08T03:21:03;8.07;;;3.38;;
70008;SDS011;59542;37.950;-122.338;2023-10-08T03:23:30;5.20;;;2.80;;
70008;SDS011;59542;37.950;-122.338;2023-10-08T03:26:02;5.15;;;2.75;;
70008;SDS011;59542;37.950;-122.338;2023-10-08T03:28:35;6.07;;;3.33;;
70008;SDS011;59542;37.950;-122.338;2023-10-08T03:31:02;6.80;;;3.40;;
70008;SDS011;59542;37.950;-122.338;2023-10-08T03:33:35;8.45;;;3.65;;
70008;SDS011;59542;37.950;-122.338;2023-10-08T03:36:04;7.65;;;3.83;;
70008;SDS011;59542;37.950;-122.338;2023-10-08T03:38:48;6.28;;;3.55;;
70008;SDS011;59542;37.950;-122.338;2023-10-08T03:41:23;7.13;;;3.33;;
70008;SDS011;59542;37.950;-122.338;2023-10-08T03:43:54;7.05;;;3.60;;
70008;SDS011;59542;37.950;-122.338;2023-10-08T03:46:30;8.07;;;3.63;;
70008;SDS011;59542;37.950;-122.338;2023-10-08T03:49:00;11.38;;;3.72;;
70008;SDS011;59542;37.950;-122.338;2023-10-08T03:51:30;8.40;;;3.45;;
70008;SDS011;59542;37.950;-122.338;2023-10-08T03:54:07;6.95;;;3.15;;
70008;SDS011;59542;37.950;-122.338;2023-10-08T03:56:43;8.75;;;4.20;;
70008;SDS011;59542;37.950;-122.338;2023-10-08T03:59:17;7.32;;;4.00;;
70008;SDS011;59542;37.950;-122.338;2023-10-08T04:02:05;8.88;;;3.55;;
70008;SDS011;59542;37.950;-122.338;2023-10-08T04:04:41;8.05;;;3.65;;
70008;SDS011;59542;37.950;-122.338;2023-10-08T04:07:20;7.57;;;3.63;;
70008;SDS011;59542;37.950;-122.338;2023-10-08T04:10:01;6.45;;;3.47;;
70008;SDS011;59542;37.950;-122.338;2023-10-08T04:12:34;9.00;;;3.60;;
70008;SDS011;59542;37.950;-122.338;2023-10-08T04:15:01;8.70;;;3.90;;
70008;SDS011;59542;37.950;-122.338;2023-10-08T04:17:33;6.15;;;3.40;;
70008;SDS011;59542;37.950;-122.338;2023-10-08T04:20:10;10.05;;;3.50;;
70008;SDS011;59542;37.950;-122.338;2023-10-08T04:22:58;9.32;;;4.07;;
70008;SDS011;59542;37.950;-122.338;2023-10-08T04:25:29;5.97;;;3.05;;
70008;SDS011;59542;37.950;-122.338;2023-10-08T04:27:56;8.77;;;3.75;;
70008;SDS011;59542;37.950;-122.338;2023-10-08T04:30:27;6.20;;;3.13;;
70008;SDS011;59542;37.950;-122.338;2023-10-08T04:33:01;7.68;;;3.38;;
70008;SDS011;59542;37.950;-122.338;2023-10-08T04:35:38;8.02;;;3.78;;
70008;SDS011;59542;37.950;-122.338;2023-10-08T04:38:20;8.98;;;3.25;;
70008;SDS011;59542;37.950;-122.338;2023-10-08T04:40:51;8.32;;;3.35;;
70008;SDS011;59542;37.950;-122.338;2023-10-08T04:43:19;7.15;;;3.47;;
70008;SDS011;59542;37.950;-122.338;2023-10-08T04:45:59;6.55;;;3.28;;
70008;SDS011;59542;37.950;-122.338;2023-10-08T04:48:52;5.85;;;2.70;;
70008;SDS011;59542;37.950;-122.338;2023-10-08T04:51:18;6.55;;;3.75;;
70008;SDS011;59542;37.950;-122.338;2023-10-08T04:53:48;7.80;;;3.10;;
70008;SDS011;59542;37.950;-122.338;2023-10-08T04:56:14;7.60;;;3.25;;
70008;SDS011;59542;37.950;-122.338;2023-10-08T04:58:48;6.90;;;2.60;;
70008;SDS011;59542;37.950;-122.338;2023-10-08T05:01:15;9.20;;;3.28;;
70008;SDS011;59542;37.950;-122.338;2023-10-08T05:03:43;5.63;;;3.13;;
70008;SDS011;59542;37.950;-122.338;2023-10-08T05:06:23;7.03;;;2.78;;
70008;SDS011;59542;37.950;-122.338;2023-10-08T05:09:03;9.88;;;3.42;;
70008;SDS011;59542;37.950;-122.338;2023-10-08T05:11:36;6.97;;;2.80;;
70008;SDS011;59542;37.950;-122.338;2023-10-08T05:14:19;7.32;;;3.08;;
70008;SDS011;59542;37.950;-122.338;2023-10-08T05:17:07;5.88;;;2.72;;
70008;SDS011;59542;37.950;-122.338;2023-10-08T05:19:40;10.35;;;3.72;;
70008;SDS011;59542;37.950;-122.338;2023-10-08T05:22:07;8.15;;;3.10;;
70008;SDS011;59542;37.950;-122.338;2023-10-08T05:24:47;9.35;;;3.53;;
70008;SDS011;59542;37.950;-122.338;2023-10-08T05:27:37;8.20;;;3.55;;
70008;SDS011;59542;37.950;-122.338;2023-10-08T05:30:17;9.60;;;3.42;;
70008;SDS011;59542;37.950;-122.338;2023-10-08T05:32:59;5.95;;;2.80;;
70008;SDS011;59542;37.950;-122.338;2023-10-08T05:35:40;5.28;;;2.72;;
70008;SDS011;59542;37.950;-122.338;2023-10-08T05:38:11;7.72;;;2.80;;
70008;SDS011;59542;37.950;-122.338;2023-10-08T05:40:44;6.07;;;2.80;;
70008;SDS011;59542;37.950;-122.338;2023-10-08T05:46:19;5.97;;;2.90;;
70008;SDS011;59542;37.950;-122.338;2023-10-08T05:54:21;9.90;;;3.20;;
70008;SDS011;59542;37.950;-122.338;2023-10-08T05:56:55;7.35;;;3.38;;
70008;SDS011;59542;37.950;-122.338;2023-10-08T05:59:38;6.35;;;3.10;;
70008;SDS011;59542;37.950;-122.338;2023-10-08T06:02:24;5.10;;;2.42;;
70008;SDS011;59542;37.950;-122.338;2023-10-08T06:13:01;6.90;;;2.55;;
70008;SDS011;59542;37.950;-122.338;2023-10-08T06:15:37;6.50;;;2.70;;
70008;SDS011;59542;37.950;-122.338;2023-10-08T06:18:10;7.97;;;2.78;;
70008;SDS011;59542;37.950;-122.338;2023-10-08T06:20:38;6.93;;;2.95;;
70008;SDS011;59542;37.950;-122.338;2023-10-08T06:23:11;6.13;;;2.70;;
70008;SDS011;59542;37.950;-122.338;2023-10-08T06:25:41;8.43;;;3.28;;
70008;SDS011;59542;37.950;-122.338;2023-10-08T06:28:11;12.52;;;3.55;;
70008;SDS011;59542;37.950;-122.338;2023-10-08T06:30:47;4.95;;;2.53;;
70008;SDS011;59542;37.950;-122.338;2023-10-08T06:33:14;7.68;;;2.97;;
70008;SDS011;59542;37.950;-122.338;2023-10-08T06:35:44;11.15;;;3.40;;
70008;SDS011;59542;37.950;-122.338;2023-10-08T06:38:22;6.25;;;2.92;;
70008;SDS011;59542;37.950;-122.338;2023-10-08T06:40:49;8.40;;;3.10;;
70008;SDS011;59542;37.950;-122.338;2023-10-08T06:43:18;7.03;;;3.10;;
70008;SDS011;59542;37.950;-122.338;2023-10-08T06:45:47;8.13;;;2.95;;
70008;SDS011;59542;37.950;-122.338;2023-10-08T06:48:18;6.78;;;2.90;;
70008;SDS011;59542;37.950;-122.338;2023-10-08T06:50:49;9.27;;;3.53;;
70008;SDS011;59542;37.950;-122.338;2023-10-08T06:53:16;5.60;;;2.63;;
70008;SDS011;59542;37.950;-122.338;2023-10-08T06:55:47;9.77;;;3.50;;
70008;SDS011;59542;37.950;-122.338;2023-10-08T06:58:14;9.35;;;3.25;;
70008;SDS011;59542;37.950;-122.338;2023-10-08T07:00:40;9.18;;;3.30;;
70008;SDS011;59542;37.950;-122.338;2023-10-08T07:03:14;6.95;;;3.15;;
70008;SDS011;59542;37.950;-122.338;2023-10-08T07:05:46;6.63;;;3.00;;
70008;SDS011;59542;37.950;-122.338;2023-10-08T07:08:26;10.82;;;3.28;;
70008;SDS011;59542;37.950;-122.338;2023-10-08T07:10:57;6.47;;;2.70;;
70008;SDS011;59542;37.950;-122.338;2023-10-08T07:13:27;9.43;;;2.97;;
70008;SDS011;59542;37.950;-122.338;2023-10-08T07:15:55;12.00;;;3.13;;
70008;SDS011;59542;37.950;-122.338;2023-10-08T07:18:22;6.43;;;3.22;;
70008;SDS011;59542;37.950;-122.338;2023-10-08T07:20:52;6.85;;;3.17;;
70008;SDS011;59542;37.950;-122.338;2023-10-08T07:23:20;6.65;;;2.85;;
70008;SDS011;59542;37.950;-122.338;2023-10-08T07:25:57;5.50;;;2.45;;
70008;SDS011;59542;37.950;-122.338;2023-10-08T07:28:40;8.73;;;3.00;;
70008;SDS011;59542;37.950;-122.338;2023-10-08T07:31:13;4.55;;;2.33;;
70008;SDS011;59542;37.950;-122.338;2023-10-08T07:33:49;6.68;;;2.53;;
70008;SDS011;59542;37.950;-122.338;2023-10-08T07:36:41;5.63;;;2.88;;
70008;SDS011;59542;37.950;-122.338;2023-10-08T07:39:09;6.45;;;2.30;;
70008;SDS011;59542;37.950;-122.338;2023-10-08T07:41:54;5.32;;;2.25;;
70008;SDS011;59542;37.950;-122.338;2023-10-08T07:44:21;5.65;;;2.50;;
70008;SDS011;59542;37.950;-122.338;2023-10-08T07:46:48;6.78;;;2.63;;
70008;SDS011;59542;37.950;-122.338;2023-10-08T07:49:16;3.28;;;1.92;;
70008;SDS011;59542;37.950;-122.338;2023-10-08T07:51:43;4.78;;;2.08;;
70008;SDS011;59542;37.950;-122.338;2023-10-08T07:54:16;7.28;;;2.40;;
70008;SDS011;59542;37.950;-122.338;2023-10-08T07:56:47;5.05;;;2.17;;
70008;SDS011;59542;37.950;-122.338;2023-10-08T07:59:17;6.78;;;2.50;;
70008;SDS011;59542;37.950;-122.338;2023-10-08T08:01:43;6.53;;;2.42;;
70008;SDS011;59542;37.950;-122.338;2023-10-08T08:04:11;6.55;;;2.35;;
70008;SDS011;59542;37.950;-122.338;2023-10-08T08:06:47;4.82;;;2.50;;
70008;SDS011;59542;37.950;-122.338;2023-10-08T08:09:18;8.32;;;2.80;;
70008;SDS011;59542;37.950;-122.338;2023-10-08T08:11:48;5.95;;;2.63;;
70008;SDS011;59542;37.950;-122.338;2023-10-08T08:14:15;4.43;;;2.95;;
70008;SDS011;59542;37.950;-122.338;2023-10-08T08:16:42;7.70;;;2.65;;
70008;SDS011;59542;37.950;-122.338;2023-10-08T08:19:14;4.05;;;2.15;;
70008;SDS011;59542;37.950;-122.338;2023-10-08T08:21:50;6.28;;;3.08;;
70008;SDS011;59542;37.950;-122.338;2023-10-08T08:24:18;4.93;;;2.22;;
70008;SDS011;59542;37.950;-122.338;2023-10-08T08:27:00;5.22;;;2.20;;
70008;SDS011;59542;37.950;-122.338;2023-10-08T08:29:33;6.00;;;2.17;;
70008;SDS011;59542;37.950;-122.338;2023-10-08T08:32:10;5.07;;;2.05;;
70008;SDS011;59542;37.950;-122.338;2023-10-08T08:34:41;4.90;;;2.28;;
70008;SDS011;59542;37.950;-122.338;2023-10-08T08:37:12;6.50;;;2.35;;
70008;SDS011;59542;37.950;-122.338;2023-10-08T08:39:38;3.25;;;2.30;;
70008;SDS011;59542;37.950;-122.338;2023-10-08T08:42:06;7.43;;;2.97;;
70008;SDS011;59542;37.950;-122.338;2023-10-08T08:44:37;4.97;;;2.22;;
70008;SDS011;59542;37.950;-122.338;2023-10-08T08:47:14;6.35;;;2.38;;
70008;SDS011;59542;37.950;-122.338;2023-10-08T08:49:44;5.63;;;2.78;;
70008;SDS011;59542;37.950;-122.338;2023-10-08T08:52:10;5.95;;;2.50;;
70008;SDS011;59542;37.950;-122.338;2023-10-08T08:54:38;8.70;;;2.20;;
70008;SDS011;59542;37.950;-122.338;2023-10-08T08:57:05;6.32;;;2.33;;
70008;SDS011;59542;37.950;-122.338;2023-10-08T08:59:40;6.68;;;2.70;;
70008;SDS011;59542;37.950;-122.338;2023-10-08T09:02:19;5.47;;;2.15;;
70008;SDS011;59542;37.950;-122.338;2023-10-08T09:04:47;5.10;;;2.35;;
70008;SDS011;59542;37.950;-122.338;2023-10-08T09:07:14;2.40;;;1.77;;
70008;SDS011;59542;37.950;-122.338;2023-10-08T09:09:46;5.38;;;2.08;;
70008;SDS011;59542;37.950;-122.338;2023-10-08T09:12:16;4.70;;;2.10;;
70008;SDS011;59542;37.950;-122.338;2023-10-08T09:14:43;6.78;;;2.15;;
70008;SDS011;59542;37.950;-122.338;2023-10-08T09:17:13;6.25;;;1.92;;
70008;SDS011;59542;37.950;-122.338;2023-10-08T09:19:42;3.42;;;1.90;;
70008;SDS011;59542;37.950;-122.338;2023-10-08T09:22:11;4.88;;;1.98;;
70008;SDS011;59542;37.950;-122.338;2023-10-08T09:24:38;4.35;;;2.20;;
70008;SDS011;59542;37.950;-122.338;2023-10-08T09:27:06;3.70;;;1.77;;
70008;SDS011;59542;37.950;-122.338;2023-10-08T09:29:34;6.82;;;2.45;;
70008;SDS011;59542;37.950;-122.338;2023-10-08T09:32:11;4.30;;;1.92;;
70008;SDS011;59542;37.950;-122.338;2023-10-08T09:34:48;3.33;;;2.15;;
70008;SDS011;59542;37.950;-122.338;2023-10-08T09:37:18;4.20;;;2.40;;
70008;SDS011;59542;37.950;-122.338;2023-10-08T09:39:48;6.13;;;2.30;;
70008;SDS011;59542;37.950;-122.338;2023-10-08T09:42:16;5.15;;;1.85;;
70008;SDS011;59542;37.950;-122.338;2023-10-08T09:44:47;4.72;;;2.40;;
70008;SDS011;59542;37.950;-122.338;2023-10-08T09:47:15;4.65;;;2.38;;
70008;SDS011;59542;37.950;-122.338;2023-10-08T09:49:56;4.07;;;2.03;;
70008;SDS011;59542;37.950;-122.338;2023-10-08T09:52:33;2.58;;;2.00;;
70008;SDS011;59542;37.950;-122.338;2023-10-08T09:55:08;3.80;;;2.20;;
70008;SDS011;59542;37.950;-122.338;2023-10-08T09:57:37;5.40;;;1.92;;
70008;SDS011;59542;37.950;-122.338;2023-10-08T10:00:05;4.40;;;2.10;;
70008;SDS011;59542;37.950;-122.338;2023-10-08T10:02:42;4.32;;;2.03;;
70008;SDS011;59542;37.950;-122.338;2023-10-08T10:05:12;4.30;;;2.42;;
70008;SDS011;59542;37.950;-122.338;2023-10-08T10:07:47;3.35;;;1.90;;
70008;SDS011;59542;37.950;-122.338;2023-10-08T10:12:53;5.00;;;1.92;;
70008;SDS011;59542;37.950;-122.338;2023-10-08T10:15:24;3.38;;;2.10;;
70008;SDS011;59542;37.950;-122.338;2023-10-08T10:17:51;3.83;;;1.95;;
70008;SDS011;59542;37.950;-122.338;2023-10-08T10:20:17;4.78;;;2.38;;
70008;SDS011;59542;37.950;-122.338;2023-10-08T10:22:46;5.05;;;2.05;;
70008;SDS011;59542;37.950;-122.338;2023-10-08T10:25:15;3.47;;;1.63;;
70008;SDS011;59542;37.950;-122.338;2023-10-08T10:28:28;7.90;;;2.03;;
70008;SDS011;59542;37.950;-122.338;2023-10-08T10:30:35;3.22;;;1.60;;
70008;SDS011;59542;37.950;-122.338;2023-10-08T10:33:01;5.30;;;2.20;;
70008;SDS011;59542;37.950;-122.338;2023-10-08T10:35:31;2.25;;;1.70;;
70008;SDS011;59542;37.950;-122.338;2023-10-08T10:37:58;3.60;;;1.92;;
70008;SDS011;59542;37.950;-122.338;2023-10-08T10:40:29;3.78;;;1.50;;
70008;SDS011;59542;37.950;-122.338;2023-10-08T10:43:05;2.60;;;1.40;;
70008;SDS011;59542;37.950;-122.338;2023-10-08T10:45:45;4.00;;;1.90;;
70008;SDS011;59542;37.950;-122.338;2023-10-08T10:48:13;3.65;;;1.90;;
70008;SDS011;59542;37.950;-122.338;2023-10-08T10:50:47;3.17;;;2.00;;
70008;SDS011;59542;37.950;-122.338;2023-10-08T10:53:33;4.28;;;2.08;;
70008;SDS011;59542;37.950;-122.338;2023-10-08T10:56:20;3.13;;;1.58;;
70008;SDS011;59542;37.950;-122.338;2023-10-08T10:59:03;5.23;;;2.03;;
70008;SDS011;59542;37.950;-122.338;2023-10-08T11:01:52;2.65;;;1.52;;
70008;SDS011;59542;37.950;-122.338;2023-10-08T11:04:32;3.58;;;2.22;;
70008;SDS011;59542;37.950;-122.338;2023-10-08T11:07:10;2.95;;;1.98;;
70008;SDS011;59542;37.950;-122.338;2023-10-08T11:09:37;2.05;;;1.73;;
70008;SDS011;59542;37.950;-122.338;2023-10-08T11:12:06;4.93;;;1.98;;
70008;SDS011;59542;37.950;-122.338;2023-10-08T11:14:39;3.33;;;1.95;;
70008;SDS011;59542;37.950;-122.338;2023-10-08T11:17:11;4.97;;;2.30;;
70008;SDS011;59542;37.950;-122.338;2023-10-08T11:19:45;4.53;;;2.13;;
70008;SDS011;59542;37.950;-122.338;2023-10-08T11:22:12;4.35;;;2.15;;
70008;SDS011;59542;37.950;-122.338;2023-10-08T11:24:48;3.83;;;2.03;;
70008;SDS011;59542;37.950;-122.338;2023-10-08T11:27:19;3.13;;;2.03;;
70008;SDS011;59542;37.950;-122.338;2023-10-08T11:29:55;5.05;;;2.00;;
70008;SDS011;59542;37.950;-122.338;2023-10-08T11:32:23;4.28;;;1.70;;
70008;SDS011;59542;37.950;-122.338;2023-10-08T11:34:55;3.25;;;1.65;;
70008;SDS011;59542;37.950;-122.338;2023-10-08T11:37:44;4.10;;;1.92;;
70008;SDS011;59542;37.950;-122.338;2023-10-08T11:40:25;4.88;;;2.13;;
70008;SDS011;59542;37.950;-122.338;2023-10-08T11:42:55;3.92;;;2.05;;
70008;SDS011;59542;37.950;-122.338;2023-10-08T11:45:27;6.13;;;2.10;;
70008;SDS011;59542;37.950;-122.338;2023-10-08T11:48:03;4.70;;;2.20;;
70008;SDS011;59542;37.950;-122.338;2023-10-08T11:50:37;4.15;;;2.55;;
70008;SDS011;59542;37.950;-122.338;2023-10-08T11:53:05;4.05;;;3.03;;
70008;SDS011;59542;37.950;-122.338;2023-10-08T11:55:32;5.57;;;3.10;;
70008;SDS011;59542;37.950;-122.338;2023-10-08T11:58:04;4.22;;;2.47;;
70008;SDS011;59542;37.950;-122.338;2023-10-08T12:00:42;5.45;;;2.72;;
70008;SDS011;59542;37.950;-122.338;2023-10-08T12:03:16;4.50;;;2.97;;
70008;SDS011;59542;37.950;-122.338;2023-10-08T12:05:47;6.07;;;4.00;;
70008;SDS011;59542;37.950;-122.338;2023-10-08T12:08:14;5.57;;;3.25;;
70008;SDS011;59542;37.950;-122.338;2023-10-08T12:10:42;3.88;;;3.35;;
70008;SDS011;59542;37.950;-122.338;2023-10-08T12:13:11;3.83;;;3.17;;
70008;SDS011;59542;37.950;-122.338;2023-10-08T12:15:37;4.55;;;3.15;;
70008;SDS011;59542;37.950;-122.338;2023-10-08T12:18:04;3.45;;;3.15;;
70008;SDS011;59542;37.950;-122.338;2023-10-08T12:20:37;6.30;;;4.05;;
70008;SDS011;59542;37.950;-122.338;2023-10-08T12:23:04;6.15;;;3.50;;
70008;SDS011;59542;37.950;-122.338;2023-10-08T12:25:34;6.88;;;4.00;;
70008;SDS011;59542;37.950;-122.338;2023-10-08T12:28:03;4.22;;;3.30;;
70008;SDS011;59542;37.950;-122.338;2023-10-08T12:30:30;4.45;;;3.67;;
70008;SDS011;59542;37.950;-122.338;2023-10-08T12:32:58;4.63;;;3.65;;
70008;SDS011;59542;37.950;-122.338;2023-10-08T12:35:25;5.18;;;3.25;;
70008;SDS011;59542;37.950;-122.338;2023-10-08T12:37:54;4.68;;;3.03;;
70008;SDS011;59542;37.950;-122.338;2023-10-08T12:40:21;4.32;;;3.05;;
70008;SDS011;59542;37.950;-122.338;2023-10-08T12:42:58;4.13;;;3.33;;
70008;SDS011;59542;37.950;-122.338;2023-10-08T12:45:25;4.43;;;3.30;;
70008;SDS011;59542;37.950;-122.338;2023-10-08T12:47:53;6.65;;;2.85;;
70008;SDS011;59542;37.950;-122.338;2023-10-08T12:50:19;5.32;;;3.45;;
70008;SDS011;59542;37.950;-122.338;2023-10-08T12:52:55;5.68;;;3.17;;
70008;SDS011;59542;37.950;-122.338;2023-10-08T12:55:24;4.20;;;2.97;;
70008;SDS011;59542;37.950;-122.338;2023-10-08T12:57:53;4.38;;;2.85;;
70008;SDS011;59542;37.950;-122.338;2023-10-08T13:00:31;3.70;;;3.22;;
70008;SDS011;59542;37.950;-122.338;2023-10-08T13:02:58;6.15;;;3.67;;
70008;SDS011;59542;37.950;-122.338;2023-10-08T13:05:26;4.70;;;3.10;;
70008;SDS011;59542;37.950;-122.338;2023-10-08T13:07:56;4.00;;;3.60;;
70008;SDS011;59542;37.950;-122.338;2023-10-08T13:10:29;6.75;;;3.88;;
70008;SDS011;59542;37.950;-122.338;2023-10-08T13:12:56;5.90;;;4.20;;
70008;SDS011;59542;37.950;-122.338;2023-10-08T13:15:23;5.93;;;4.40;;
70008;SDS011;59542;37.950;-122.338;2023-10-08T13:17:52;5.13;;;4.63;;
70008;SDS011;59542;37.950;-122.338;2023-10-08T13:20:19;6.78;;;4.93;;
70008;SDS011;59542;37.950;-122.338;2023-10-08T13:22:46;5.60;;;5.10;;
70008;SDS011;59542;37.950;-122.338;2023-10-08T13:25:12;4.60;;;4.20;;
70008;SDS011;59542;37.950;-122.338;2023-10-08T13:27:42;7.05;;;5.25;;
70008;SDS011;59542;37.950;-122.338;2023-10-08T13:30:09;6.80;;;5.28;;
70008;SDS011;59542;37.950;-122.338;2023-10-08T13:32:35;6.80;;;4.88;;
70008;SDS011;59542;37.950;-122.338;2023-10-08T13:35:03;8.60;;;5.72;;
70008;SDS011;59542;37.950;-122.338;2023-10-08T13:37:34;7.07;;;5.88;;
70008;SDS011;59542;37.950;-122.338;2023-10-08T13:40:00;6.10;;;4.95;;
70008;SDS011;59542;37.950;-122.338;2023-10-08T13:42:27;6.57;;;5.30;;
70008;SDS011;59542;37.950;-122.338;2023-10-08T13:44:57;5.03;;;4.53;;
70008;SDS011;59542;37.950;-122.338;2023-10-08T13:47:25;6.53;;;5.65;;
70008;SDS011;59542;37.950;-122.338;2023-10-08T13:49:53;6.82;;;5.38;;
70008;SDS011;59542;37.950;-122.338;2023-10-08T13:52:20;6.07;;;5.47;;
70008;SDS011;59542;37.950;-122.338;2023-10-08T13:54:52;9.02;;;5.55;;
70008;SDS011;59542;37.950;-122.338;2023-10-08T13:57:19;6.55;;;4.85;;
70008;SDS011;59542;37.950;-122.338;2023-10-08T13:59:46;5.45;;;4.95;;
70008;SDS011;59542;37.950;-122.338;2023-10-08T14:02:13;4.90;;;4.32;;
70008;SDS011;59542;37.950;-122.338;2023-10-08T14:04:43;4.10;;;3.70;;
70008;SDS011;59542;37.950;-122.338;2023-10-08T14:07:11;4.63;;;4.22;;
70008;SDS011;59542;37.950;-122.338;2023-10-08T14:09:42;4.43;;;3.90;;
70008;SDS011;59542;37.950;-122.338;2023-10-08T14:12:11;4.78;;;3.88;;
70008;SDS011;59542;37.950;-122.338;2023-10-08T14:14:40;5.45;;;4.90;;
70008;SDS011;59542;37.950;-122.338;2023-10-08T14:17:09;4.55;;;4.13;;
70008;SDS011;59542;37.950;-122.338;2023-10-08T14:19:40;5.72;;;4.57;;
70008;SDS011;59542;37.950;-122.338;2023-10-08T14:22:25;4.97;;;4.50;;
70008;SDS011;59542;37.950;-122.338;2023-10-08T14:24:52;4.30;;;3.90;;
70008;SDS011;59542;37.950;-122.338;2023-10-08T14:27:27;3.92;;;3.53;;
70008;SDS011;59542;37.950;-122.338;2023-10-08T14:29:57;5.82;;;4.30;;
70008;SDS011;59542;37.950;-122.338;2023-10-08T14:32:29;4.95;;;4.15;;
70008;SDS011;59542;37.950;-122.338;2023-10-08T14:34:58;7.18;;;3.58;;
70008;SDS011;59542;37.950;-122.338;2023-10-08T14:37:42;4.03;;;3.00;;
70008;SDS011;59542;37.950;-122.338;2023-10-08T14:40:26;3.47;;;3.17;;
70008;SDS011;59542;37.950;-122.338;2023-10-08T14:43:11;3.42;;;3.13;;
70008;SDS011;59542;37.950;-122.338;2023-10-08T14:45:37;4.35;;;3.03;;
70008;SDS011;59542;37.950;-122.338;2023-10-08T14:48:06;3.47;;;2.72;;
70008;SDS011;59542;37.950;-122.338;2023-10-08T14:50:36;2.72;;;2.53;;
70008;SDS011;59542;37.950;-122.338;2023-10-08T14:53:04;2.47;;;2.28;;
70008;SDS011;59542;37.950;-122.338;2023-10-08T14:55:31;2.75;;;2.50;;